createdAt,value
2022-11-29T00:00:52.563Z,7.43
2022-11-29T00:05:02.823Z,7.57
2022-11-29T00:09:18.946Z,7.33
2022-11-29T00:13:31.927Z,7.07
2022-11-29T00:17:43.228Z,7.73
2022-11-29T00:21:55.187Z,6.93
2022-11-29T00:26:08.943Z,7.00
2022-11-29T00:30:23.940Z,6.90
2022-11-29T00:34:34.162Z,6.03
2022-11-29T00:38:47.346Z,5.90
2022-11-29T00:42:58.944Z,5.70
2022-11-29T00:47:17.530Z,5.83
2022-11-29T00:51:28.606Z,5.83
2022-11-29T00:55:42.325Z,5.80
2022-11-29T00:59:57.965Z,6.40
2022-11-29T01:04:15.305Z,7.13
2022-11-29T01:08:31.104Z,7.13
2022-11-29T01:12:44.829Z,7.27
2022-11-29T01:16:57.127Z,6.97
2022-11-29T01:21:20.467Z,7.20
2022-11-29T01:25:33.586Z,5.63
2022-11-29T01:29:47.808Z,6.13
2022-11-29T01:34:02.476Z,5.67
2022-11-29T01:38:19.551Z,4.90
2022-11-29T01:42:32.485Z,4.87
2022-11-29T01:46:56.187Z,4.77
2022-11-29T01:51:09.828Z,4.37
2022-11-29T01:55:33.087Z,4.50
2022-11-29T01:59:57.008Z,4.33
2022-11-29T02:04:10.287Z,3.97
2022-11-29T02:08:28.750Z,5.17
2022-11-29T02:13:27.849Z,5.27
2022-11-29T02:27:45.546Z,5.20
2022-11-29T02:43:19.691Z,3.43
2022-11-29T02:47:57.175Z,3.60
2022-11-29T02:57:59.792Z,3.40
2022-11-29T04:13:12.587Z,2.53
2022-11-29T04:49:49.990Z,3.03
2022-11-29T04:54:09.753Z,3.23
2022-11-29T05:03:34.391Z,2.97
2022-11-29T05:24:08.231Z,3.97
2022-11-29T05:55:15.547Z,3.57
2022-11-29T07:19:59.190Z,2.40
2022-11-29T07:24:30.310Z,2.87
2022-11-29T07:34:20.091Z,3.37
2022-11-29T07:39:00.973Z,3.07
2022-11-29T07:43:34.710Z,3.43
2022-11-29T07:47:55.611Z,3.07
2022-11-29T07:57:02.948Z,2.47
2022-11-29T08:01:16.292Z,3.03
2022-11-29T08:20:54.989Z,2.43
2022-11-29T08:25:09.508Z,2.90
2022-11-29T08:29:20.033Z,3.40
2022-11-29T08:33:34.908Z,3.27
2022-11-29T08:37:51.531Z,3.37
2022-11-29T08:42:11.677Z,3.37
2022-11-29T08:46:21.312Z,4.00
2022-11-29T08:50:31.133Z,2.87
2022-11-29T08:54:41.751Z,2.13
2022-11-29T08:58:53.290Z,4.33
2022-11-29T09:03:35.009Z,4.37
2022-11-29T09:07:44.827Z,4.30
2022-11-29T09:17:17.206Z,5.07
2022-11-29T09:21:35.426Z,4.20
2022-11-29T09:25:51.506Z,4.00
2022-11-29T09:30:10.985Z,4.53
2022-11-29T09:34:21.446Z,4.60
2022-11-29T09:38:32.866Z,4.87
2022-11-29T09:42:56.828Z,4.87
2022-11-29T09:47:26.547Z,5.10
2022-11-29T09:51:58.188Z,5.00
2022-11-29T10:30:53.505Z,6.53
2022-11-29T10:44:50.897Z,4.20
2022-11-29T10:54:57.590Z,2.87
2022-11-29T11:57:19.329Z,3.37
2022-11-29T12:01:57.391Z,2.90
2022-11-29T12:11:36.293Z,2.67
2022-11-29T12:20:52.612Z,2.73
2022-11-29T12:25:16.670Z,2.70
2022-11-29T12:29:36.930Z,2.20
2022-11-29T12:38:45.374Z,1.70
2022-11-29T12:43:05.229Z,2.07
2022-11-29T12:48:01.392Z,2.40
2022-11-29T12:52:26.951Z,2.27
2022-11-29T12:56:43.872Z,2.13
2022-11-29T13:01:06.931Z,2.30
2022-11-29T13:05:30.232Z,1.80
2022-11-29T13:10:04.731Z,1.87
2022-11-29T13:51:41.891Z,1.17
2022-11-29T13:56:44.353Z,1.50
2022-11-29T14:01:21.786Z,2.00
2022-11-29T14:05:40.293Z,2.17
2022-11-29T14:10:06.801Z,2.43
2022-11-29T14:14:27.372Z,2.30
2022-11-29T14:19:08.050Z,2.17
2022-11-29T14:23:47.176Z,2.50
2022-11-29T15:39:44.672Z,2.53
2022-11-29T16:04:19.572Z,2.00
2022-11-29T16:09:04.270Z,1.90
